sensor_id;sensor_type;location;lat;lon;timestamp;P1;durP1;ratioP1;P2;durP2;ratioP2
11675;SDS011;5894;42.768;23.404;2023-05-07T00:00:51;5.47;;;4.95;;
11675;SDS011;5894;42.768;23.404;2023-05-07T00:03:01;7.13;;;4.95;;
11675;SDS011;5894;42.768;23.404;2023-05-07T00:06:02;5.90;;;4.55;;
11675;SDS011;5894;42.768;23.404;2023-05-07T00:08:59;6.93;;;5.03;;
11675;SDS011;5894;42.768;23.404;2023-05-07T00:14:43;6.38;;;5.10;;
11675;SDS011;5894;42.768;23.404;2023-05-07T00:17:41;7.25;;;5.30;;
11675;SDS011;5894;42.768;23.404;2023-05-07T00:20:19;7.72;;;5.45;;
11675;SDS011;5894;42.768;23.404;2023-05-07T00:23:03;10.80;;;5.97;;
11675;SDS011;5894;42.768;23.404;2023-05-07T00:26:03;8.80;;;6.25;;
11675;SDS011;5894;42.768;23.404;2023-05-07T00:28:53;8.50;;;6.30;;
11675;SDS011;5894;42.768;23.404;2023-05-07T00:34:31;7.45;;;5.97;;
11675;SDS011;5894;42.768;23.404;2023-05-07T00:37:03;8.40;;;6.40;;
11675;SDS011;5894;42.768;23.404;2023-05-07T00:42:53;9.25;;;7.35;;
11675;SDS011;5894;42.768;23.404;2023-05-07T00:45:42;12.77;;;9.10;;
11675;SDS011;5894;42.768;23.404;2023-05-07T00:48:41;18.00;;;9.70;;
11675;SDS011;5894;42.768;23.404;2023-05-07T00:51:41;13.07;;;9.27;;
11675;SDS011;5894;42.768;23.404;2023-05-07T00:57:26;16.33;;;9.40;;
11675;SDS011;5894;42.768;23.404;2023-05-07T01:00:28;12.70;;;8.73;;
11675;SDS011;5894;42.768;23.404;2023-05-07T01:03:24;11.07;;;7.15;;
11675;SDS011;5894;42.768;23.404;2023-05-07T01:06:22;7.73;;;5.93;;
11675;SDS011;5894;42.768;23.404;2023-05-07T01:09:12;6.30;;;5.45;;
11675;SDS011;5894;42.768;23.404;2023-05-07T01:12:09;8.65;;;5.53;;
11675;SDS011;5894;42.768;23.404;2023-05-07T01:14:44;6.32;;;5.40;;
11675;SDS011;5894;42.768;23.404;2023-05-07T01:17:19;6.70;;;5.30;;
11675;SDS011;5894;42.768;23.404;2023-05-07T01:19:50;5.93;;;5.20;;
11675;SDS011;5894;42.768;23.404;2023-05-07T01:22:46;8.20;;;5.80;;
11675;SDS011;5894;42.768;23.404;2023-05-07T01:25:29;8.10;;;5.60;;
11675;SDS011;5894;42.768;23.404;2023-05-07T01:28:11;7.20;;;5.77;;
11675;SDS011;5894;42.768;23.404;2023-05-07T01:31:00;7.30;;;5.80;;
11675;SDS011;5894;42.768;23.404;2023-05-07T01:33:49;7.63;;;5.37;;
11675;SDS011;5894;42.768;23.404;2023-05-07T01:36:54;8.00;;;5.23;;
11675;SDS011;5894;42.768;23.404;2023-05-07T01:39:40;6.97;;;5.47;;
11675;SDS011;5894;42.768;23.404;2023-05-07T01:42:17;6.87;;;5.73;;
11675;SDS011;5894;42.768;23.404;2023-05-07T01:44:53;6.33;;;4.90;;
11675;SDS011;5894;42.768;23.404;2023-05-07T01:47:42;6.00;;;5.40;;
11675;SDS011;5894;42.768;23.404;2023-05-07T01:50:41;8.47;;;5.43;;
11675;SDS011;5894;42.768;23.404;2023-05-07T01:53:35;6.17;;;5.37;;
11675;SDS011;5894;42.768;23.404;2023-05-07T01:59:07;7.47;;;5.60;;
11675;SDS011;5894;42.768;23.404;2023-05-07T02:01:52;6.10;;;5.40;;
11675;SDS011;5894;42.768;23.404;2023-05-07T02:04:41;7.13;;;5.80;;
11675;SDS011;5894;42.768;23.404;2023-05-07T02:07:37;6.80;;;5.87;;
11675;SDS011;5894;42.768;23.404;2023-05-07T02:10:11;7.33;;;6.00;;
11675;SDS011;5894;42.768;23.404;2023-05-07T02:12:51;8.40;;;6.40;;
11675;SDS011;5894;42.768;23.404;2023-05-07T02:15:35;6.73;;;5.87;;
11675;SDS011;5894;42.768;23.404;2023-05-07T02:18:17;6.13;;;5.53;;
11675;SDS011;5894;42.768;23.404;2023-05-07T02:20:56;7.67;;;6.03;;
11675;SDS011;5894;42.768;23.404;2023-05-07T02:23:39;6.67;;;5.87;;
11675;SDS011;5894;42.768;23.404;2023-05-07T02:26:13;6.53;;;5.37;;
11675;SDS011;5894;42.768;23.404;2023-05-07T02:28:53;7.80;;;6.07;;
11675;SDS011;5894;42.768;23.404;2023-05-07T02:34:16;6.57;;;5.50;;
11675;SDS011;5894;42.768;23.404;2023-05-07T02:36:48;9.87;;;5.77;;
11675;SDS011;5894;42.768;23.404;2023-05-07T02:39:32;8.33;;;6.37;;
11675;SDS011;5894;42.768;23.404;2023-05-07T02:42:01;8.77;;;6.20;;
11675;SDS011;5894;42.768;23.404;2023-05-07T02:47:18;7.07;;;5.73;;
11675;SDS011;5894;42.768;23.404;2023-05-07T02:49:49;9.07;;;6.23;;
11675;SDS011;5894;42.768;23.404;2023-05-07T02:52:19;8.17;;;5.90;;
11675;SDS011;5894;42.768;23.404;2023-05-07T02:54:50;7.63;;;5.77;;
11675;SDS011;5894;42.768;23.404;2023-05-07T02:57:18;7.07;;;5.30;;
11675;SDS011;5894;42.768;23.404;2023-05-07T02:59:52;6.90;;;5.83;;
11675;SDS011;5894;42.768;23.404;2023-05-07T03:02:30;9.80;;;5.90;;
11675;SDS011;5894;42.768;23.404;2023-05-07T03:05:08;8.57;;;5.83;;
11675;SDS011;5894;42.768;23.404;2023-05-07T03:07:47;7.23;;;5.80;;
11675;SDS011;5894;42.768;23.404;2023-05-07T03:10:25;7.70;;;5.50;;
11675;SDS011;5894;42.768;23.404;2023-05-07T03:13:11;6.50;;;5.77;;
11675;SDS011;5894;42.768;23.404;2023-05-07T03:16:00;7.27;;;5.83;;
11675;SDS011;5894;42.768;23.404;2023-05-07T03:18:28;6.87;;;5.83;;
11675;SDS011;5894;42.768;23.404;2023-05-07T03:21:21;9.00;;;6.13;;
11675;SDS011;5894;42.768;23.404;2023-05-07T03:24:26;9.20;;;6.30;;
11675;SDS011;5894;42.768;23.404;2023-05-07T03:27:08;9.43;;;6.57;;
11675;SDS011;5894;42.768;23.404;2023-05-07T03:29:51;12.83;;;9.10;;
11675;SDS011;5894;42.768;23.404;2023-05-07T03:32:39;13.80;;;9.53;;
11675;SDS011;5894;42.768;23.404;2023-05-07T03:35:15;15.30;;;10.20;;
11675;SDS011;5894;42.768;23.404;2023-05-07T03:38:04;12.40;;;8.93;;
11675;SDS011;5894;42.768;23.404;2023-05-07T03:40:52;10.00;;;6.57;;
11675;SDS011;5894;42.768;23.404;2023-05-07T03:43:46;10.70;;;6.27;;
11675;SDS011;5894;42.768;23.404;2023-05-07T03:46:27;8.73;;;6.40;;
11675;SDS011;5894;42.768;23.404;2023-05-07T03:49:16;7.70;;;6.30;;
11675;SDS011;5894;42.768;23.404;2023-05-07T03:52:07;8.20;;;5.90;;
11675;SDS011;5894;42.768;23.404;2023-05-07T03:54:48;8.87;;;6.50;;
11675;SDS011;5894;42.768;23.404;2023-05-07T03:57:21;7.43;;;5.87;;
11675;SDS011;5894;42.768;23.404;2023-05-07T04:00:02;7.50;;;6.30;;
11675;SDS011;5894;42.768;23.404;2023-05-07T04:02:46;7.70;;;6.10;;
11675;SDS011;5894;42.768;23.404;2023-05-07T04:05:34;7.30;;;6.17;;
11675;SDS011;5894;42.768;23.404;2023-05-07T04:08:27;7.60;;;6.00;;
11675;SDS011;5894;42.768;23.404;2023-05-07T04:11:02;7.53;;;6.20;;
11675;SDS011;5894;42.768;23.404;2023-05-07T04:13:38;7.50;;;6.27;;
11675;SDS011;5894;42.768;23.404;2023-05-07T04:16:37;8.10;;;6.77;;
11675;SDS011;5894;42.768;23.404;2023-05-07T04:19:11;8.17;;;6.50;;
11675;SDS011;5894;42.768;23.404;2023-05-07T04:25:22;13.33;;;6.60;;
11675;SDS011;5894;42.768;23.404;2023-05-07T04:28:10;8.43;;;6.57;;
11675;SDS011;5894;42.768;23.404;2023-05-07T04:31:02;8.80;;;6.40;;
11675;SDS011;5894;42.768;23.404;2023-05-07T04:33:46;9.57;;;6.93;;
11675;SDS011;5894;42.768;23.404;2023-05-07T04:36:18;9.27;;;6.77;;
11675;SDS011;5894;42.768;23.404;2023-05-07T04:39:00;7.43;;;6.63;;
11675;SDS011;5894;42.768;23.404;2023-05-07T04:41:37;8.57;;;6.47;;
11675;SDS011;5894;42.768;23.404;2023-05-07T04:44:11;9.60;;;7.10;;
11675;SDS011;5894;42.768;23.404;2023-05-07T04:46:42;9.80;;;7.30;;
11675;SDS011;5894;42.768;23.404;2023-05-07T04:49:13;9.00;;;7.47;;
11675;SDS011;5894;42.768;23.404;2023-05-07T04:51:53;7.30;;;6.60;;
11675;SDS011;5894;42.768;23.404;2023-05-07T04:54:26;8.37;;;6.47;;
11675;SDS011;5894;42.768;23.404;2023-05-07T04:57:28;8.13;;;7.00;;
11675;SDS011;5894;42.768;23.404;2023-05-07T05:00:02;8.30;;;6.60;;
11675;SDS011;5894;42.768;23.404;2023-05-07T05:02:44;11.20;;;6.97;;
11675;SDS011;5894;42.768;23.404;2023-05-07T05:05:22;9.03;;;7.13;;
11675;SDS011;5894;42.768;23.404;2023-05-07T05:07:55;10.27;;;7.00;;
11675;SDS011;5894;42.768;23.404;2023-05-07T05:10:48;8.83;;;6.90;;
11675;SDS011;5894;42.768;23.404;2023-05-07T05:13:26;9.37;;;7.00;;
11675;SDS011;5894;42.768;23.404;2023-05-07T05:16:02;9.40;;;7.30;;
11675;SDS011;5894;42.768;23.404;2023-05-07T05:18:32;8.45;;;6.57;;
11675;SDS011;5894;42.768;23.404;2023-05-07T05:21:22;8.40;;;7.10;;
11675;SDS011;5894;42.768;23.404;2023-05-07T05:24:10;8.65;;;7.28;;
11675;SDS011;5894;42.768;23.404;2023-05-07T05:26:55;8.02;;;6.97;;
11675;SDS011;5894;42.768;23.404;2023-05-07T05:32:27;10.65;;;7.28;;
11675;SDS011;5894;42.768;23.404;2023-05-07T05:35:26;7.38;;;6.45;;
11675;SDS011;5894;42.768;23.404;2023-05-07T05:38:14;9.30;;;7.65;;
11675;SDS011;5894;42.768;23.404;2023-05-07T05:40:50;8.57;;;7.60;;
11675;SDS011;5894;42.768;23.404;2023-05-07T05:43:26;10.32;;;7.50;;
11675;SDS011;5894;42.768;23.404;2023-05-07T05:46:29;10.35;;;8.50;;
11675;SDS011;5894;42.768;23.404;2023-05-07T05:49:06;10.75;;;7.63;;
11675;SDS011;5894;42.768;23.404;2023-05-07T05:51:39;11.25;;;8.52;;
11675;SDS011;5894;42.768;23.404;2023-05-07T05:54:16;12.15;;;9.27;;
11675;SDS011;5894;42.768;23.404;2023-05-07T06:00:14;10.18;;;9.07;;
11675;SDS011;5894;42.768;23.404;2023-05-07T06:03:05;9.88;;;8.88;;
11675;SDS011;5894;42.768;23.404;2023-05-07T06:05:41;9.82;;;8.82;;
11675;SDS011;5894;42.768;23.404;2023-05-07T06:08:28;10.90;;;9.27;;
11675;SDS011;5894;42.768;23.404;2023-05-07T06:11:06;14.88;;;8.68;;
11675;SDS011;5894;42.768;23.404;2023-05-07T06:13:42;9.75;;;7.85;;
11675;SDS011;5894;42.768;23.404;2023-05-07T06:16:09;11.98;;;8.40;;
11675;SDS011;5894;42.768;23.404;2023-05-07T06:21:28;9.90;;;7.82;;
11675;SDS011;5894;42.768;23.404;2023-05-07T06:24:13;9.80;;;7.95;;
11675;SDS011;5894;42.768;23.404;2023-05-07T06:27:03;9.85;;;7.93;;
11675;SDS011;5894;42.768;23.404;2023-05-07T06:29:33;8.43;;;7.63;;
11675;SDS011;5894;42.768;23.404;2023-05-07T06:32:33;8.15;;;7.35;;
11675;SDS011;5894;42.768;23.404;2023-05-07T06:35:01;9.60;;;8.13;;
11675;SDS011;5894;42.768;23.404;2023-05-07T06:37:34;9.05;;;7.85;;
11675;SDS011;5894;42.768;23.404;2023-05-07T06:40:14;8.73;;;7.82;;
11675;SDS011;5894;42.768;23.404;2023-05-07T06:42:44;8.75;;;7.85;;
11675;SDS011;5894;42.768;23.404;2023-05-07T06:45:22;7.60;;;6.85;;
11675;SDS011;5894;42.768;23.404;2023-05-07T06:47:56;11.60;;;7.57;;
11675;SDS011;5894;42.768;23.404;2023-05-07T06:50:25;8.18;;;7.38;;
11675;SDS011;5894;42.768;23.404;2023-05-07T06:52:59;10.95;;;7.43;;
11675;SDS011;5894;42.768;23.404;2023-05-07T06:55:39;8.13;;;7.22;;
11675;SDS011;5894;42.768;23.404;2023-05-07T06:58:11;9.10;;;7.70;;
11675;SDS011;5894;42.768;23.404;2023-05-07T07:00:42;9.73;;;8.20;;
11675;SDS011;5894;42.768;23.404;2023-05-07T07:03:34;9.27;;;7.53;;
11675;SDS011;5894;42.768;23.404;2023-05-07T07:06:18;12.98;;;8.30;;
11675;SDS011;5894;42.768;23.404;2023-05-07T07:08:49;12.13;;;7.65;;
11675;SDS011;5894;42.768;23.404;2023-05-07T07:11:17;8.23;;;7.43;;
11675;SDS011;5894;42.768;23.404;2023-05-07T07:13:46;8.10;;;7.28;;
11675;SDS011;5894;42.768;23.404;2023-05-07T07:16:14;11.23;;;7.93;;
11675;SDS011;5894;42.768;23.404;2023-05-07T07:18:43;9.93;;;7.68;;
11675;SDS011;5894;42.768;23.404;2023-05-07T07:21:10;8.98;;;7.47;;
11675;SDS011;5894;42.768;23.404;2023-05-07T07:23:51;8.85;;;7.47;;
11675;SDS011;5894;42.768;23.404;2023-05-07T07:26:20;10.60;;;7.60;;
11675;SDS011;5894;42.768;23.404;2023-05-07T07:28:47;9.63;;;7.60;;
11675;SDS011;5894;42.768;23.404;2023-05-07T07:31:18;11.75;;;7.90;;
11675;SDS011;5894;42.768;23.404;2023-05-07T07:33:50;8.27;;;6.82;;
11675;SDS011;5894;42.768;23.404;2023-05-07T07:36:17;7.85;;;7.13;;
11675;SDS011;5894;42.768;23.404;2023-05-07T07:38:44;9.90;;;6.55;;
11675;SDS011;5894;42.768;23.404;2023-05-07T07:41:11;8.55;;;6.50;;
11675;SDS011;5894;42.768;23.404;2023-05-07T07:43:42;8.82;;;6.15;;
11675;SDS011;5894;42.768;23.404;2023-05-07T07:46:11;8.65;;;6.53;;
11675;SDS011;5894;42.768;23.404;2023-05-07T07:48:39;11.30;;;6.35;;
11675;SDS011;5894;42.768;23.404;2023-05-07T07:51:12;7.88;;;5.75;;
11675;SDS011;5894;42.768;23.404;2023-05-07T07:53:44;7.97;;;5.80;;
11675;SDS011;5894;42.768;23.404;2023-05-07T07:56:11;9.55;;;5.85;;
11675;SDS011;5894;42.768;23.404;2023-05-07T07:58:42;7.47;;;5.70;;
11675;SDS011;5894;42.768;23.404;2023-05-07T08:01:09;6.05;;;5.25;;
11675;SDS011;5894;42.768;23.404;2023-05-07T08:03:38;6.20;;;5.20;;
11675;SDS011;5894;42.768;23.404;2023-05-07T08:06:08;6.75;;;5.18;;
11675;SDS011;5894;42.768;23.404;2023-05-07T08:08:37;6.57;;;5.07;;
11675;SDS011;5894;42.768;23.404;2023-05-07T08:11:05;7.35;;;4.90;;
11675;SDS011;5894;42.768;23.404;2023-05-07T08:13:35;6.40;;;4.90;;
11675;SDS011;5894;42.768;23.404;2023-05-07T08:16:06;10.88;;;4.90;;
11675;SDS011;5894;42.768;23.404;2023-05-07T08:18:34;6.57;;;4.70;;
11675;SDS011;5894;42.768;23.404;2023-05-07T08:21:02;5.03;;;4.20;;
11675;SDS011;5894;42.768;23.404;2023-05-07T08:23:31;4.43;;;3.90;;
11675;SDS011;5894;42.768;23.404;2023-05-07T08:26:01;5.43;;;4.90;;
11675;SDS011;5894;42.768;23.404;2023-05-07T08:28:29;5.90;;;5.30;;
11675;SDS011;5894;42.768;23.404;2023-05-07T08:30:56;9.35;;;4.95;;
11675;SDS011;5894;42.768;23.404;2023-05-07T08:33:31;30.67;;;8.02;;
11675;SDS011;5894;42.768;23.404;2023-05-07T08:35:58;12.98;;;6.80;;
11675;SDS011;5894;42.768;23.404;2023-05-07T08:38:27;8.10;;;5.78;;
11675;SDS011;5894;42.768;23.404;2023-05-07T08:40:55;9.55;;;5.50;;
11675;SDS011;5894;42.768;23.404;2023-05-07T08:43:26;6.70;;;5.10;;
11675;SDS011;5894;42.768;23.404;2023-05-07T08:45:55;9.82;;;6.78;;
11675;SDS011;5894;42.768;23.404;2023-05-07T08:48:29;14.90;;;6.75;;
11675;SDS011;5894;42.768;23.404;2023-05-07T08:51:06;8.93;;;5.50;;
11675;SDS011;5894;42.768;23.404;2023-05-07T08:53:35;9.07;;;5.53;;
11675;SDS011;5894;42.768;23.404;2023-05-07T08:56:03;9.57;;;5.90;;
11675;SDS011;5894;42.768;23.404;2023-05-07T08:58:35;8.63;;;6.43;;
11675;SDS011;5894;42.768;23.404;2023-05-07T09:01:09;7.10;;;5.93;;
11675;SDS011;5894;42.768;23.404;2023-05-07T09:03:45;8.30;;;6.00;;
11675;SDS011;5894;42.768;23.404;2023-05-07T09:06:17;10.43;;;5.72;;
11675;SDS011;5894;42.768;23.404;2023-05-07T09:08:48;7.90;;;5.10;;
11675;SDS011;5894;42.768;23.404;2023-05-07T09:11:27;8.38;;;5.10;;
11675;SDS011;5894;42.768;23.404;2023-05-07T09:14:00;10.85;;;5.55;;
11675;SDS011;5894;42.768;23.404;2023-05-07T09:16:36;9.90;;;5.30;;
11675;SDS011;5894;42.768;23.404;2023-05-07T09:19:04;8.43;;;5.45;;
11675;SDS011;5894;42.768;23.404;2023-05-07T09:21:33;6.18;;;5.18;;
11675;SDS011;5894;42.768;23.404;2023-05-07T09:24:04;5.40;;;4.53;;
11675;SDS011;5894;42.768;23.404;2023-05-07T09:26:36;5.22;;;4.07;;
11675;SDS011;5894;42.768;23.404;2023-05-07T09:29:07;9.60;;;4.13;;
11675;SDS011;5894;42.768;23.404;2023-05-07T09:31:36;6.28;;;4.05;;
11675;SDS011;5894;42.768;23.404;2023-05-07T09:34:05;11.60;;;3.70;;
11675;SDS011;5894;42.768;23.404;2023-05-07T09:36:35;5.43;;;3.30;;
11675;SDS011;5894;42.768;23.404;2023-05-07T09:39:05;5.85;;;3.10;;
11675;SDS011;5894;42.768;23.404;2023-05-07T09:41:37;4.13;;;3.20;;
11675;SDS011;5894;42.768;23.404;2023-05-07T09:44:41;8.38;;;5.22;;
11675;SDS011;5894;42.768;23.404;2023-05-07T09:47:13;4.53;;;3.65;;
11675;SDS011;5894;42.768;23.404;2023-05-07T09:49:50;5.50;;;3.78;;
11675;SDS011;5894;42.768;23.404;2023-05-07T09:52:26;5.25;;;3.53;;
11675;SDS011;5894;42.768;23.404;2023-05-07T09:55:00;4.03;;;3.60;;
11675;SDS011;5894;42.768;23.404;2023-05-07T09:57:35;4.07;;;3.10;;
11675;SDS011;5894;42.768;23.404;2023-05-07T10:00:08;7.22;;;3.20;;
11675;SDS011;5894;42.768;23.404;2023-05-07T10:02:47;3.35;;;2.75;;
11675;SDS011;5894;42.768;23.404;2023-05-07T10:05:21;3.30;;;2.70;;
11675;SDS011;5894;42.768;23.404;2023-05-07T10:07:50;4.45;;;2.80;;
11675;SDS011;5894;42.768;23.404;2023-05-07T10:10:21;4.40;;;2.50;;
11675;SDS011;5894;42.768;23.404;2023-05-07T10:12:51;2.65;;;2.45;;
11675;SDS011;5894;42.768;23.404;2023-05-07T10:15:29;14.20;;;8.27;;
11675;SDS011;5894;42.768;23.404;2023-05-07T10:17:58;8.50;;;4.60;;
11675;SDS011;5894;42.768;23.404;2023-05-07T10:20:27;7.70;;;3.40;;
11675;SDS011;5894;42.768;23.404;2023-05-07T10:23:00;10.70;;;7.55;;
11675;SDS011;5894;42.768;23.404;2023-05-07T10:25:38;5.35;;;3.53;;
11675;SDS011;5894;42.768;23.404;2023-05-07T10:28:14;4.32;;;3.60;;
11675;SDS011;5894;42.768;23.404;2023-05-07T10:30:51;3.20;;;2.90;;
11675;SDS011;5894;42.768;23.404;2023-05-07T10:33:42;2.95;;;2.75;;
11675;SDS011;5894;42.768;23.404;2023-05-07T10:36:13;3.80;;;2.50;;
11675;SDS011;5894;42.768;23.404;2023-05-07T10:38:40;15.75;;;3.28;;
11675;SDS011;5894;42.768;23.404;2023-05-07T10:41:09;3.70;;;2.72;;
11675;SDS011;5894;42.768;23.404;2023-05-07T10:43:50;4.03;;;2.80;;
11675;SDS011;5894;42.768;23.404;2023-05-07T10:46:32;2.55;;;2.35;;
11675;SDS011;5894;42.768;23.404;2023-05-07T10:49:12;4.63;;;2.88;;
11675;SDS011;5894;42.768;23.404;2023-05-07T10:52:11;4.38;;;2.72;;
11675;SDS011;5894;42.768;23.404;2023-05-07T11:16:35;4.50;;;2.60;;
11675;SDS011;5894;42.768;23.404;2023-05-07T11:19:14;4.40;;;3.10;;
11675;SDS011;5894;42.768;23.404;2023-05-07T11:21:46;5.05;;;2.78;;
11675;SDS011;5894;42.768;23.404;2023-05-07T11:24:36;3.40;;;3.10;;
11675;SDS011;5894;42.768;23.404;2023-05-07T11:27:06;3.45;;;2.83;;
11675;SDS011;5894;42.768;23.404;2023-05-07T11:29:33;3.42;;;2.80;;
11675;SDS011;5894;42.768;23.404;2023-05-07T11:32:12;6.70;;;3.00;;
11675;SDS011;5894;42.768;23.404;2023-05-07T11:34:46;4.35;;;2.78;;
11675;SDS011;5894;42.768;23.404;2023-05-07T11:37:16;3.58;;;2.80;;
11675;SDS011;5894;42.768;23.404;2023-05-07T11:40:01;6.78;;;3.00;;
11675;SDS011;5894;42.768;23.404;2023-05-07T11:42:31;7.45;;;3.00;;
11675;SDS011;5894;42.768;23.404;2023-05-07T11:45:00;3.88;;;2.88;;
11675;SDS011;5894;42.768;23.404;2023-05-07T11:47:30;5.15;;;3.00;;
11675;SDS011;5894;42.768;23.404;2023-05-07T11:50:02;5.75;;;2.70;;
11675;SDS011;5894;42.768;23.404;2023-05-07T11:52:30;3.28;;;2.63;;
11675;SDS011;5894;42.768;23.404;2023-05-07T11:54:57;4.57;;;2.70;;
11675;SDS011;5894;42.768;23.404;2023-05-07T11:57:26;3.03;;;2.72;;
11675;SDS011;5894;42.768;23.404;2023-05-07T11:59:53;3.95;;;3.10;;
11675;SDS011;5894;42.768;23.404;2023-05-07T12:02:20;3.65;;;2.58;;
11675;SDS011;5894;42.768;23.404;2023-05-07T12:04:48;3.67;;;3.05;;
11675;SDS011;5894;42.768;23.404;2023-05-07T12:07:16;6.10;;;2.65;;
11675;SDS011;5894;42.768;23.404;2023-05-07T12:09:43;4.93;;;2.80;;
11675;SDS011;5894;42.768;23.404;2023-05-07T12:12:14;3.63;;;3.17;;
11675;SDS011;5894;42.768;23.404;2023-05-07T12:14:42;4.65;;;2.97;;
11675;SDS011;5894;42.768;23.404;2023-05-07T12:17:11;4.90;;;3.00;;
11675;SDS011;5894;42.768;23.404;2023-05-07T12:19:39;3.42;;;2.70;;
11675;SDS011;5894;42.768;23.404;2023-05-07T12:22:10;4.10;;;2.70;;
11675;SDS011;5894;42.768;23.404;2023-05-07T12:24:42;5.30;;;2.50;;
11675;SDS011;5894;42.768;23.404;2023-05-07T12:27:10;2.85;;;2.60;;
11675;SDS011;5894;42.768;23.404;2023-05-07T12:29:37;2.83;;;2.63;;
11675;SDS011;5894;42.768;23.404;2023-05-07T12:32:06;3.55;;;2.53;;
11675;SDS011;5894;42.768;23.404;2023-05-07T12:34:33;2.65;;;2.45;;
11675;SDS011;5894;42.768;23.404;2023-05-07T12:37:01;2.67;;;2.47;;
11675;SDS011;5894;42.768;23.404;2023-05-07T12:39:31;14.05;;;3.00;;
11675;SDS011;5894;42.768;23.404;2023-05-07T12:41:59;2.58;;;2.25;;
11675;SDS011;5894;42.768;23.404;2023-05-07T12:44:29;5.13;;;2.83;;
11675;SDS011;5894;42.768;23.404;2023-05-07T12:46:56;3.85;;;2.40;;
11675;SDS011;5894;42.768;23.404;2023-05-07T12:49:23;3.10;;;2.42;;
11675;SDS011;5894;42.768;23.404;2023-05-07T12:51:51;2.78;;;2.58;;
11675;SDS011;5894;42.768;23.404;2023-05-07T12:54:27;6.32;;;3.00;;
11675;SDS011;5894;42.768;23.404;2023-05-07T12:57:01;4.18;;;2.70;;
11675;SDS011;5894;42.768;23.404;2023-05-07T12:59:32;3.53;;;2.40;;
11675;SDS011;5894;42.768;23.404;2023-05-07T13:02:00;3.15;;;2.45;;
11675;SDS011;5894;42.768;23.404;2023-05-07T13:04:27;5.35;;;2.80;;
11675;SDS011;5894;42.768;23.404;2023-05-07T13:06:54;3.83;;;3.05;;
11675;SDS011;5894;42.768;23.404;2023-05-07T13:09:21;3.90;;;2.80;;
11675;SDS011;5894;42.768;23.404;2023-05-07T13:11:48;7.03;;;2.95;;
11675;SDS011;5894;42.768;23.404;2023-05-07T13:14:16;5.07;;;2.50;;
11675;SDS011;5894;42.768;23.404;2023-05-07T13:16:46;4.05;;;2.60;;
11675;SDS011;5894;42.768;23.404;2023-05-07T13:19:13;3.38;;;2.40;;
11675;SDS011;5894;42.768;23.404;2023-05-07T13:21:40;5.82;;;2.55;;
11675;SDS011;5894;42.768;23.404;2023-05-07T13:24:07;3.17;;;2.30;;
11675;SDS011;5894;42.768;23.404;2023-05-07T13:26:34;8.45;;;2.45;;
11675;SDS011;5894;42.768;23.404;2023-05-07T13:29:01;5.32;;;2.70;;
11675;SDS011;5894;42.768;23.404;2023-05-07T13:31:29;4.60;;;2.22;;
11675;SDS011;5894;42.768;23.404;2023-05-07T13:33:57;5.63;;;2.78;;
11675;SDS011;5894;42.768;23.404;2023-05-07T13:36:24;2.60;;;2.40;;
11675;SDS011;5894;42.768;23.404;2023-05-07T13:38:52;3.72;;;2.50;;
11675;SDS011;5894;42.768;23.404;2023-05-07T13:41:19;2.42;;;2.22;;
11675;SDS011;5894;42.768;23.404;2023-05-07T13:43:46;5.50;;;2.50;;
11675;SDS011;5894;42.768;23.404;2023-05-07T13:46:14;6.18;;;3.25;;
11675;SDS011;5894;42.768;23.404;2023-05-07T13:48:43;4.32;;;2.85;;
11675;SDS011;5894;42.768;23.404;2023-05-07T13:51:10;3.83;;;2.28;;
11675;SDS011;5894;42.768;23.404;2023-05-07T13:53:37;3.15;;;2.22;;
11675;SDS011;5894;42.768;23.404;2023-05-07T13:56:04;2.55;;;2.20;;
11675;SDS011;5894;42.768;23.404;2023-05-07T13:58:31;2.47;;;2.08;;
11675;SDS011;5894;42.768;23.404;2023-05-07T14:00:58;2.75;;;2.22;;
11675;SDS011;5894;42.768;23.404;2023-05-07T14:03:25;5.38;;;2.83;;
11675;SDS011;5894;42.768;23.404;2023-05-07T14:05:53;9.55;;;2.45;;
11675;SDS011;5894;42.768;23.404;2023-05-07T14:08:23;2.60;;;2.30;;
11675;SDS011;5894;42.768;23.404;2023-05-07T14:10:50;4.78;;;2.78;;
11675;SDS011;5894;42.768;23.404;2023-05-07T14:13:17;5.57;;;3.08;;
11675;SDS011;5894;42.768;23.404;2023-05-07T14:15:44;2.95;;;2.40;;
11675;SDS011;5894;42.768;23.404;2023-05-07T14:18:13;4.93;;;2.65;;
11675;SDS011;5894;42.768;23.404;2023-05-07T14:20:40;3.08;;;2.17;;
11675;SDS011;5894;42.768;23.404;2023-05-07T14:23:10;2.30;;;2.00;;
11675;SDS011;5894;42.768;23.404;2023-05-07T14:25:37;3.75;;;2.53;;
11675;SDS011;5894;42.768;23.404;2023-05-07T14:28:04;3.83;;;2.42;;
11675;SDS011;5894;42.768;23.404;2023-05-07T14:30:31;2.42;;;2.22;;
11675;SDS011;5894;42.768;23.404;2023-05-07T14:32:58;3.00;;;2.35;;
11675;SDS011;5894;42.768;23.404;2023-05-07T14:35:25;4.82;;;2.67;;
11675;SDS011;5894;42.768;23.404;2023-05-07T14:37:51;2.67;;;2.42;;
11675;SDS011;5894;42.768;23.404;2023-05-07T14:40:20;4.45;;;2.85;;
11675;SDS011;5894;42.768;23.404;2023-05-07T14:42:47;3.13;;;2.22;;
11675;SDS011;5894;42.768;23.404;2023-05-07T14:45:14;4.35;;;2.28;;
11675;SDS011;5894;42.768;23.404;2023-05-07T14:47:41;3.47;;;2.10;;
11675;SDS011;5894;42.768;23.404;2023-05-07T14:50:08;2.50;;;2.00;;
11675;SDS011;5894;42.768;23.404;2023-05-07T14:52:35;4.13;;;2.58;;
11675;SDS011;5894;42.768;23.404;2023-05-07T14:55:03;3.92;;;2.17;;
11675;SDS011;5894;42.768;23.404;2023-05-07T14:57:31;3.28;;;2.35;;
11675;SDS011;5894;42.768;23.404;2023-05-07T15:00:00;2.40;;;2.20;;
11675;SDS011;5894;42.768;23.404;2023-05-07T15:02:27;2.88;;;2.20;;
11675;SDS011;5894;42.768;23.404;2023-05-07T15:04:55;3.40;;;2.25;;
11675;SDS011;5894;42.768;23.404;2023-05-07T15:07:23;2.20;;;2.00;;
11675;SDS011;5894;42.768;23.404;2023-05-07T15:09:51;6.10;;;2.30;;
11675;SDS011;5894;42.768;23.404;2023-05-07T15:12:18;2.53;;;2.03;;
11675;SDS011;5894;42.768;23.404;2023-05-07T15:14:46;3.22;;;2.30;;
11675;SDS011;5894;42.768;23.404;2023-05-07T15:17:14;2.67;;;2.00;;
11675;SDS011;5894;42.768;23.404;2023-05-07T15:19:41;3.88;;;2.22;;
11675;SDS011;5894;42.768;23.404;2023-05-07T15:22:08;4.13;;;1.92;;
11675;SDS011;5894;42.768;23.404;2023-05-07T15:24:35;2.72;;;2.30;;
11675;SDS011;5894;42.768;23.404;2023-05-07T15:27:02;3.05;;;2.45;;
11675;SDS011;5894;42.768;23.404;2023-05-07T15:29:29;3.00;;;2.33;;
11675;SDS011;5894;42.768;23.404;2023-05-07T15:31:59;6.40;;;2.42;;
11675;SDS011;5894;42.768;23.404;2023-05-07T15:34:26;2.55;;;2.15;;
11675;SDS011;5894;42.768;23.404;2023-05-07T15:36:54;2.75;;;2.55;;
11675;SDS011;5894;42.768;23.404;2023-05-07T15:39:22;4.35;;;2.58;;
11675;SDS011;5894;42.768;23.404;2023-05-07T15:41:50;4.20;;;2.45;;
11675;SDS011;5894;42.768;23.404;2023-05-07T15:44:17;3.92;;;2.45;;
11675;SDS011;5894;42.768;23.404;2023-05-07T15:46:44;4.95;;;3.42;;
11675;SDS011;5894;42.768;23.404;2023-05-07T15:49:13;3.10;;;2.80;;
11675;SDS011;5894;42.768;23.404;2023-05-07T15:51:40;3.90;;;2.53;;
11675;SDS011;5894;42.768;23.404;2023-05-07T15:54:07;3.58;;;2.58;;
11675;SDS011;5894;42.768;23.404;2023-05-07T15:56:34;2.67;;;2.47;;
11675;SDS011;5894;42.768;23.404;2023-05-07T15:59:00;6.63;;;2.60;;
11675;SDS011;5894;42.768;23.404;2023-05-07T16:01:28;4.50;;;2.55;;
11675;SDS011;5894;42.768;23.404;2023-05-07T16:03:55;3.55;;;2.80;;
11675;SDS011;5894;42.768;23.404;2023-05-07T16:06:24;4.75;;;2.85;;
11675;SDS011;5894;42.768;23.404;2023-05-07T16:08:52;2.47;;;2.28;;
11675;SDS011;5894;42.768;23.404;2023-05-07T16:11:19;6.25;;;2.40;;
11675;SDS011;5894;42.768;23.404;2023-05-07T16:13:47;3.38;;;2.38;;
11675;SDS011;5894;42.768;23.404;2023-05-07T16:16:16;4.00;;;2.42;;
11675;SDS011;5894;42.768;23.404;2023-05-07T16:18:43;3.53;;;2.50;;
11675;SDS011;5894;42.768;23.404;2023-05-07T16:21:10;3.53;;;2.70;;
11675;SDS011;5894;42.768;23.404;2023-05-07T16:23:39;4.57;;;2.40;;
11675;SDS011;5894;42.768;23.404;2023-05-07T16:26:06;4.55;;;2.72;;